Time;durP1;ratioP1;P1;durP2;ratioP2;P2;SDS_P1;SDS_P2;PMS_P1;PMS_P2;Temp;Humidity;BMP_temperature;BMP_pressure;BME280_temperature;BME280_humidity;BME280_pressure;Samples;Min_cycle;Max_cycle;Signal;HPM_P1;HPM_P2
2023/08/23 00:01:15;;;;;;;10.53;9.37;;;23.70;99.90;;;;;;5074798;28;20229;-76
2023/08/23 00:03:41;;;;;;;9.60;8.87;;;23.60;99.90;;;;;;5045901;28;20250;-76
2023/08/23 00:06:06;;;;;;;9.20;8.40;;;23.50;99.90;;;;;;5043661;28;20215;-77
2023/08/23 00:08:32;;;;;;;12.70;9.83;;;23.40;99.90;;;;;;5043957;28;20612;-76
2023/08/23 00:10:58;;;;;;;8.77;8.07;;;23.30;99.90;;;;;;5043611;28;20278;-76
2023/08/23 00:13:23;;;;;;;10.50;9.50;;;23.30;99.90;;;;;;5043442;28;20698;-76
2023/08/23 00:15:50;;;;;;;9.40;8.70;;;23.40;99.90;;;;;;5025976;28;20236;-76
2023/08/23 00:18:16;;;;;;;8.13;7.53;;;23.40;99.90;;;;;;5074087;28;20775;-76
2023/08/23 00:20:41;;;;;;;8.70;8.13;;;23.50;99.90;;;;;;5074543;28;20514;-76
2023/08/23 00:23:08;;;;;;;8.60;7.90;;;23.50;99.90;;;;;;5056319;28;20234;-76
2023/08/23 00:25:33;;;;;;;10.77;9.10;;;23.50;99.90;;;;;;5041861;28;20856;-77
2023/08/23 00:27:59;;;;;;;9.53;8.63;;;23.50;99.90;;;;;;5041997;28;20480;-76
2023/08/23 00:30:24;;;;;;;8.97;8.30;;;23.40;99.90;;;;;;5073523;28;20227;-76
2023/08/23 00:32:50;;;;;;;10.40;9.43;;;23.40;99.90;;;;;;5039729;28;20226;-76
2023/08/23 00:35:16;;;;;;;9.40;7.40;;;23.50;99.90;;;;;;5042648;28;20234;-76
2023/08/23 00:37:41;;;;;;;8.57;7.90;;;23.50;99.90;;;;;;5038129;28;20219;-77
2023/08/23 00:40:10;;;;;;;8.27;7.67;;;23.50;99.90;;;;;;5025161;28;20219;-76
2023/08/23 00:42:36;;;;;;;9.40;8.57;;;23.40;99.90;;;;;;5024734;28;20467;-76
2023/08/23 00:45:02;;;;;;;8.00;7.40;;;23.40;99.90;;;;;;5071183;28;20540;-77
2023/08/23 00:47:28;;;;;;;8.60;7.77;;;23.50;99.90;;;;;;5053374;28;20495;-77
2023/08/23 00:49:57;;;;;;;8.87;8.17;;;23.50;99.90;;;;;;5056588;28;20461;-76
2023/08/23 00:52:23;;;;;;;9.40;8.40;;;23.50;99.90;;;;;;5041989;28;20461;-76
2023/08/23 00:54:51;;;;;;;9.73;8.83;;;23.40;99.90;;;;;;5039719;28;20474;-76
2023/08/23 00:57:17;;;;;;;8.50;7.87;;;23.50;99.90;;;;;;5053660;28;20990;-76
2023/08/23 00:59:44;;;;;;;8.57;7.60;;;23.40;99.90;;;;;;5040623;28;20987;-76
2023/08/23 01:02:10;;;;;;;8.93;8.03;;;23.30;99.90;;;;;;5028249;28;20465;-76
2023/08/23 01:04:35;;;;;;;9.03;8.33;;;23.10;99.90;;;;;;5071611;28;20476;-76
2023/08/23 01:07:14;;;;;;;7.73;7.23;;;23.20;99.90;;;;;;5041187;28;20227;-76
2023/08/23 01:09:54;;;;;;;9.07;8.30;;;23.30;99.90;;;;;;5021935;28;20753;-76
2023/08/23 01:12:27;;;;;;;8.40;7.67;;;23.30;99.90;;;;;;5022993;28;20472;-76
2023/08/23 01:14:59;;;;;;;8.10;7.50;;;23.30;99.90;;;;;;5054802;28;20589;-76
2023/08/23 01:17:26;;;;;;;8.80;8.00;;;23.30;99.90;;;;;;5039242;28;20513;-76
2023/08/23 01:19:55;;;;;;;10.77;8.80;;;23.30;99.90;;;;;;5052778;28;20464;-76
2023/08/23 01:22:22;;;;;;;9.17;8.33;;;23.30;99.90;;;;;;5023793;28;20458;-76
2023/08/23 01:24:49;;;;;;;8.37;7.70;;;23.30;99.90;;;;;;5064406;28;20469;-76
2023/08/23 01:27:18;;;;;;;9.20;8.27;;;23.30;99.90;;;;;;5022696;28;20473;-76
2023/08/23 01:29:45;;;;;;;9.63;8.83;;;23.30;99.90;;;;;;5041181;28;20480;-76
2023/08/23 01:32:24;;;;;;;10.57;8.20;;;23.20;99.90;;;;;;5038703;28;20592;-76
2023/08/23 01:34:56;;;;;;;8.70;7.90;;;23.20;99.90;;;;;;5037996;28;20469;-76
2023/08/23 01:37:23;;;;;;;9.10;8.50;;;23.20;99.90;;;;;;5070562;28;20580;-76
2023/08/23 01:39:52;;;;;;;8.80;8.10;;;23.10;99.90;;;;;;5040696;28;20474;-76
2023/08/23 01:42:21;;;;;;;9.10;8.20;;;23.20;99.90;;;;;;5023169;28;20453;-76
2023/08/23 01:44:48;;;;;;;10.23;8.50;;;23.10;99.90;;;;;;5040877;28;20457;-76
2023/08/23 01:47:14;;;;;;;9.20;8.50;;;23.00;99.90;;;;;;5019073;28;20462;-76
2023/08/23 01:49:40;;;;;;;9.70;8.80;;;22.90;99.90;;;;;;5040287;28;21049;-76
2023/08/23 01:52:06;;;;;;;8.87;8.07;;;23.00;99.90;;;;;;5024914;28;20211;-76
2023/08/23 01:54:32;;;;;;;9.53;8.60;;;23.00;99.90;;;;;;5038164;28;20585;-76
2023/08/23 01:56:57;;;;;;;9.53;8.70;;;23.00;99.90;;;;;;5038993;28;20346;-77
2023/08/23 01:59:23;;;;;;;9.07;8.17;;;22.90;99.90;;;;;;5039613;28;20338;-76
2023/08/23 02:01:49;;;;;;;8.77;7.97;;;22.90;99.90;;;;;;5069606;28;20297;-76
2023/08/23 02:04:16;;;;;;;8.47;7.77;;;22.90;99.90;;;;;;5021626;28;20347;-76
2023/08/23 02:06:43;;;;;;;11.00;8.73;;;22.80;99.90;;;;;;5036275;28;20430;-76
2023/08/23 02:09:09;;;;;;;8.63;7.93;;;22.80;99.90;;;;;;5051272;28;20493;-76
2023/08/23 02:11:36;;;;;;;8.30;7.57;;;22.80;99.90;;;;;;5067789;28;20476;-76
2023/08/23 02:14:03;;;;;;;9.23;7.87;;;22.80;99.90;;;;;;5036509;28;20368;-76
2023/08/23 02:16:30;;;;;;;8.87;8.07;;;22.80;99.90;;;;;;5047810;28;20564;-76
2023/08/23 02:18:55;;;;;;;8.77;7.90;;;22.80;99.90;;;;;;5033724;28;21075;-76
2023/08/23 02:21:21;;;;;;;9.23;8.33;;;22.80;99.90;;;;;;5037977;28;20259;-77
2023/08/23 02:23:47;;;;;;;8.77;8.07;;;22.80;99.90;;;;;;5039634;28;20230;-76
2023/08/23 02:26:13;;;;;;;8.87;8.17;;;22.70;99.90;;;;;;5019737;28;20799;-76
2023/08/23 02:28:39;;;;;;;9.80;7.57;;;22.70;99.90;;;;;;5038026;28;20476;-76
2023/08/23 02:31:06;;;;;;;10.93;9.27;;;22.50;99.90;;;;;;5039049;28;20724;-76
2023/08/23 02:33:33;;;;;;;8.40;7.80;;;22.50;99.90;;;;;;5037250;28;20653;-76
2023/08/23 02:35:58;;;;;;;11.70;9.00;;;22.50;99.90;;;;;;5067332;28;20490;-76
2023/08/23 02:38:26;;;;;;;9.93;7.50;;;22.60;99.90;;;;;;5036280;28;20286;-76
2023/08/23 02:40:55;;;;;;;8.53;7.73;;;22.60;99.90;;;;;;5053206;28;20464;-76
2023/08/23 02:43:21;;;;;;;7.63;7.03;;;22.70;99.90;;;;;;5055177;28;20685;-75
2023/08/23 02:45:47;;;;;;;9.17;8.30;;;22.60;99.90;;;;;;5069600;28;20569;-77
2023/08/23 02:48:13;;;;;;;8.90;8.00;;;22.60;99.90;;;;;;5050306;28;20844;-76
2023/08/23 02:50:38;;;;;;;8.30;7.60;;;22.30;99.90;;;;;;5072571;28;20257;-76
2023/08/23 02:53:05;;;;;;;8.10;7.43;;;22.10;99.90;;;;;;5055043;28;20219;-76
2023/08/23 02:55:33;;;;;;;8.83;8.10;;;21.90;99.90;;;;;;5072659;28;20693;-76
2023/08/23 02:57:59;;;;;;;9.17;8.27;;;21.90;99.90;;;;;;5019787;28;20557;-76
2023/08/23 03:00:25;;;;;;;8.53;7.87;;;21.90;99.90;;;;;;5040101;28;20453;-76
2023/08/23 03:02:50;;;;;;;7.90;7.20;;;22.10;99.90;;;;;;5050216;28;20762;-76
2023/08/23 03:05:16;;;;;;;8.03;7.43;;;22.20;99.90;;;;;;5038445;28;20223;-76
2023/08/23 03:07:42;;;;;;;8.37;7.70;;;22.30;99.90;;;;;;5035126;28;20215;-76
2023/08/23 03:10:09;;;;;;;9.50;8.80;;;22.40;99.90;;;;;;5021193;28;20889;-76
2023/08/23 03:12:34;;;;;;;8.27;7.47;;;22.40;99.90;;;;;;5038461;28;20678;-76
2023/08/23 03:15:00;;;;;;;7.17;6.57;;;22.30;99.90;;;;;;5034972;28;20473;-76
2023/08/23 03:17:25;;;;;;;8.03;7.33;;;22.30;99.90;;;;;;5033554;28;20231;-76
2023/08/23 03:19:51;;;;;;;8.93;8.17;;;22.20;99.90;;;;;;5053409;28;20226;-76
2023/08/23 03:22:17;;;;;;;9.70;7.67;;;22.20;99.90;;;;;;5038279;28;20346;-76
2023/08/23 03:24:42;;;;;;;10.70;8.30;;;22.00;99.90;;;;;;5037628;28;20219;-76
2023/08/23 03:27:08;;;;;;;9.47;8.03;;;21.90;99.90;;;;;;5034700;28;20234;-76
2023/08/23 03:29:34;;;;;;;8.70;7.80;;;21.60;99.90;;;;;;5037087;28;20259;-76
2023/08/23 03:32:00;;;;;;;9.80;8.90;;;21.20;99.90;;;;;;5066557;28;20248;-76
2023/08/23 03:34:26;;;;;;;8.07;7.37;;;21.20;99.90;;;;;;5020195;28;20485;-76
2023/08/23 03:36:52;;;;;;;9.63;8.90;;;21.10;99.90;;;;;;5035242;28;20882;-76
2023/08/23 03:39:18;;;;;;;10.30;8.90;;;21.20;99.90;;;;;;5050056;28;20465;-76
2023/08/23 03:41:43;;;;;;;9.97;9.07;;;21.10;99.90;;;;;;5036250;28;20220;-75
2023/08/23 03:44:11;;;;;;;10.03;9.13;;;20.70;99.90;;;;;;5032693;28;20227;-76
2023/08/23 03:46:37;;;;;;;10.53;9.53;;;20.50;99.90;;;;;;5048648;28;20510;-76
2023/08/23 03:49:03;;;;;;;11.57;10.50;;;20.40;99.90;;;;;;5049584;28;20519;-76
2023/08/23 03:51:28;;;;;;;9.97;9.07;;;20.30;99.90;;;;;;5036615;28;20749;-76
2023/08/23 03:53:55;;;;;;;10.57;9.77;;;20.40;99.90;;;;;;5037000;28;20228;-76
2023/08/23 03:56:21;;;;;;;9.80;8.90;;;20.50;99.90;;;;;;5047470;28;20462;-76
2023/08/23 03:58:47;;;;;;;10.10;9.10;;;20.80;99.90;;;;;;5030109;28;20611;-78
2023/08/23 04:01:12;;;;;;;9.80;8.77;;;21.10;99.90;;;;;;5032285;28;20727;-77
2023/08/23 04:03:38;;;;;;;10.40;9.40;;;21.20;99.90;;;;;;5032315;28;20250;-76
2023/08/23 04:06:03;;;;;;;10.00;8.87;;;21.30;99.90;;;;;;5032066;28;20239;-77
2023/08/23 04:08:29;;;;;;;9.23;8.30;;;21.40;99.90;;;;;;5031494;28;20291;-76
2023/08/23 04:10:55;;;;;;;8.87;8.07;;;21.50;99.90;;;;;;5031681;28;20227;-77
2023/08/23 04:13:21;;;;;;;8.03;7.43;;;21.60;99.90;;;;;;5032291;28;20231;-77
2023/08/23 04:15:48;;;;;;;9.57;8.00;;;21.60;99.90;;;;;;5044178;28;20208;-76
2023/08/23 04:18:14;;;;;;;7.90;7.30;;;21.60;99.90;;;;;;5031593;28;20527;-76
2023/08/23 04:20:40;;;;;;;8.87;8.07;;;21.60;99.90;;;;;;5035180;28;20461;-76
2023/08/23 04:23:07;;;;;;;7.50;6.90;;;21.60;99.90;;;;;;5063604;28;20228;-76
2023/08/23 04:25:33;;;;;;;8.23;7.40;;;21.60;99.90;;;;;;5051148;28;20447;-76
2023/08/23 04:27:59;;;;;;;9.27;8.47;;;21.60;99.90;;;;;;5017365;28;20464;-76
2023/08/23 04:30:25;;;;;;;8.73;7.83;;;21.60;99.90;;;;;;5051083;28;20228;-76
2023/08/23 04:32:53;;;;;;;8.67;7.63;;;21.60;99.90;;;;;;5050630;28;20219;-76
2023/08/23 04:35:18;;;;;;;9.00;8.10;;;21.60;99.90;;;;;;5053828;28;20549;-76
2023/08/23 04:37:44;;;;;;;8.80;8.00;;;21.60;99.90;;;;;;5022656;28;20231;-76
2023/08/23 04:40:10;;;;;;;9.50;8.70;;;21.60;99.90;;;;;;5036008;28;20713;-75
2023/08/23 04:42:38;;;;;;;8.33;7.67;;;21.60;99.90;;;;;;5049925;28;20778;-75
2023/08/23 04:45:05;;;;;;;10.23;8.57;;;21.60;99.90;;;;;;5030676;28;20461;-78
2023/08/23 04:47:31;;;;;;;9.57;8.87;;;21.60;99.90;;;;;;5060045;28;20472;-76
2023/08/23 04:49:56;;;;;;;7.67;7.07;;;21.60;99.90;;;;;;5017679;28;20468;-76
2023/08/23 04:52:22;;;;;;;8.93;8.13;;;21.60;99.90;;;;;;5049341;28;20545;-76
2023/08/23 04:54:48;;;;;;;11.10;8.60;;;21.50;99.90;;;;;;5036131;28;20231;-76
2023/08/23 04:57:14;;;;;;;9.27;8.47;;;21.50;99.90;;;;;;5033360;28;20828;-76
2023/08/23 04:59:39;;;;;;;8.30;7.60;;;21.40;99.90;;;;;;5050059;28;20216;-76
2023/08/23 05:02:06;;;;;;;11.93;7.97;;;21.40;99.90;;;;;;5051072;28;20335;-76
2023/08/23 05:04:31;;;;;;;7.93;7.23;;;21.40;99.90;;;;;;5018038;28;20986;-76
2023/08/23 05:06:57;;;;;;;9.90;8.50;;;21.40;99.90;;;;;;5032486;28;20220;-76
2023/08/23 05:09:23;;;;;;;9.60;7.60;;;21.40;99.90;;;;;;5026900;28;20266;-75
2023/08/23 05:11:48;;;;;;;8.33;7.53;;;21.30;99.90;;;;;;5048952;28;20700;-76
2023/08/23 05:14:14;;;;;;;9.20;8.40;;;21.40;99.90;;;;;;5045857;28;20313;-75
2023/08/23 05:16:40;;;;;;;8.07;7.33;;;21.40;99.90;;;;;;5013446;28;20215;-76
2023/08/23 05:19:05;;;;;;;8.90;7.10;;;21.30;99.90;;;;;;5045801;28;20794;-75
2023/08/23 05:21:31;;;;;;;11.03;7.10;;;21.30;99.90;;;;;;5013535;28;20219;-75
2023/08/23 05:23:57;;;;;;;7.73;7.03;;;21.40;99.90;;;;;;5013340;28;20246;-75
2023/08/23 05:26:22;;;;;;;8.53;7.63;;;21.40;99.90;;;;;;5031445;28;20219;-75
2023/08/23 05:28:48;;;;;;;7.47;6.90;;;21.40;99.90;;;;;;5020605;28;20825;-77
2023/08/23 05:31:15;;;;;;;7.80;7.10;;;21.40;99.90;;;;;;5033468;28;20340;-75
2023/08/23 05:33:42;;;;;;;6.67;6.10;;;21.40;99.90;;;;;;5032903;28;20338;-75
2023/08/23 05:36:08;;;;;;;11.13;7.37;;;21.50;99.90;;;;;;5016086;28;20454;-76
2023/08/23 05:38:33;;;;;;;10.73;7.10;;;21.50;99.90;;;;;;5032919;28;20659;-76
2023/08/23 05:41:01;;;;;;;7.97;7.27;;;21.50;99.90;;;;;;5031321;28;20215;-76
2023/08/23 05:43:27;;;;;;;7.40;6.80;;;21.50;99.90;;;;;;5045382;28;20464;-76
2023/08/23 05:45:56;;;;;;;8.47;7.70;;;21.50;99.90;;;;;;5026995;28;20223;-76
2023/08/23 05:48:23;;;;;;;7.60;6.90;;;21.50;99.90;;;;;;5029168;28;20592;-76
2023/08/23 05:50:49;;;;;;;7.83;7.03;;;21.50;99.90;;;;;;5043452;28;20473;-77
2023/08/23 05:53:21;;;;;;;9.13;7.83;;;21.50;99.90;;;;;;5028622;28;20509;-76
2023/08/23 05:55:50;;;;;;;7.93;7.13;;;21.50;99.90;;;;;;5042157;28;20227;-77
2023/08/23 05:58:17;;;;;;;7.13;6.53;;;21.60;99.90;;;;;;5013509;28;20457;-76
2023/08/23 06:00:45;;;;;;;7.77;6.70;;;21.60;99.90;;;;;;5029775;28;20466;-77
2023/08/23 06:03:10;;;;;;;7.20;6.53;;;21.60;99.90;;;;;;5044512;28;20457;-77
2023/08/23 06:05:36;;;;;;;9.23;8.37;;;21.60;99.90;;;;;;5043644;28;20454;-77
2023/08/23 06:08:03;;;;;;;8.10;7.40;;;21.60;99.90;;;;;;5028303;28;20347;-76
2023/08/23 06:10:29;;;;;;;7.97;7.27;;;21.60;99.90;;;;;;5013920;28;20482;-76
2023/08/23 06:12:55;;;;;;;8.40;7.70;;;21.70;99.90;;;;;;5013652;28;20473;-76
2023/08/23 06:15:21;;;;;;;8.30;7.47;;;21.70;99.90;;;;;;5061583;28;20584;-77
2023/08/23 06:17:46;;;;;;;8.17;7.47;;;21.70;99.90;;;;;;5029463;28;20226;-77
2023/08/23 06:20:12;;;;;;;9.00;8.20;;;21.70;99.90;;;;;;5029716;28;20755;-77
2023/08/23 06:22:38;;;;;;;8.33;7.53;;;21.80;99.90;;;;;;5030095;28;20287;-76
2023/08/23 06:25:05;;;;;;;8.50;7.80;;;21.80;99.90;;;;;;5033996;28;20219;-76
2023/08/23 06:27:30;;;;;;;7.80;7.00;;;21.80;99.90;;;;;;5050073;28;20725;-76
2023/08/23 06:29:56;;;;;;;10.00;8.07;;;21.90;99.90;;;;;;5035334;28;20474;-76
2023/08/23 06:32:25;;;;;;;12.00;7.13;;;21.90;99.90;;;;;;5035398;28;20211;-76
2023/08/23 06:34:50;;;;;;;11.57;8.53;;;21.90;99.90;;;;;;5036246;28;20626;-77
2023/08/23 06:37:16;;;;;;;7.90;7.20;;;22.00;99.90;;;;;;5065390;27;20588;-75
2023/08/23 06:39:42;;;;;;;8.00;7.30;;;22.00;99.90;;;;;;5036526;28;20224;-76
2023/08/23 06:42:07;;;;;;;8.80;7.83;;;22.00;99.90;;;;;;5014906;28;20285;-76
2023/08/23 06:44:33;;;;;;;9.13;7.80;;;22.00;99.90;;;;;;5048406;28;20228;-76
2023/08/23 06:46:59;;;;;;;9.90;7.33;;;22.10;99.90;;;;;;5027791;28;20551;-76
2023/08/23 06:49:25;;;;;;;7.80;7.03;;;22.10;99.90;;;;;;5064597;27;20222;-76
2023/08/23 06:51:50;;;;;;;8.73;8.03;;;22.10;99.90;;;;;;5066804;28;20229;-76
2023/08/23 06:54:16;;;;;;;10.17;9.17;;;22.20;99.90;;;;;;5038273;28;20231;-76
2023/08/23 06:56:42;;;;;;;8.33;7.47;;;22.20;99.90;;;;;;5034383;28;20216;-75
2023/08/23 06:59:07;;;;;;;8.23;7.53;;;22.20;99.90;;;;;;5037208;28;20265;-76
2023/08/23 07:01:33;;;;;;;7.63;6.93;;;22.30;99.90;;;;;;5034681;28;20811;-76
2023/08/23 07:03:59;;;;;;;7.07;6.47;;;22.40;99.90;;;;;;5034728;28;20342;-75
2023/08/23 07:06:24;;;;;;;9.00;8.07;;;22.50;99.90;;;;;;5046072;28;20874;-76
2023/08/23 07:08:50;;;;;;;9.20;7.40;;;22.50;99.90;;;;;;5038045;28;20641;-76
2023/08/23 07:11:16;;;;;;;11.73;7.93;;;22.60;99.90;;;;;;5035310;28;20227;-76
2023/08/23 07:13:41;;;;;;;9.03;7.40;;;22.60;99.90;;;;;;5036770;28;20255;-76
2023/08/23 07:16:07;;;;;;;7.47;6.77;;;22.70;99.90;;;;;;5034487;28;20223;-76
2023/08/23 07:18:33;;;;;;;8.43;7.73;;;22.80;99.90;;;;;;5035423;28;20308;-76
2023/08/23 07:20:58;;;;;;;8.80;8.10;;;22.80;99.90;;;;;;5035476;28;20219;-75
2023/08/23 07:23:24;;;;;;;9.80;8.53;;;22.80;99.90;;;;;;5035767;28;20229;-76
2023/08/23 07:25:50;;;;;;;8.80;7.90;;;22.90;99.90;;;;;;5035717;28;20219;-76
2023/08/23 07:28:16;;;;;;;7.77;7.17;;;22.80;99.90;;;;;;5016518;28;20258;-76
2023/08/23 07:30:49;;;;;;;7.73;7.03;;;22.80;99.90;;;;;;5051073;28;20227;-76
2023/08/23 07:33:15;;;;;;;9.10;8.20;;;23.00;99.90;;;;;;5051353;28;20273;-76
2023/08/23 07:35:41;;;;;;;9.50;7.50;;;23.10;99.90;;;;;;5038350;28;20997;-76
2023/08/23 07:38:07;;;;;;;8.00;7.27;;;23.10;99.90;;;;;;5034360;28;20465;-76
2023/08/23 07:40:37;;;;;;;7.97;7.27;;;23.30;99.90;;;;;;5036682;28;20248;-76
2023/08/23 07:43:03;;;;;;;8.00;7.07;;;23.60;99.90;;;;;;5066582;27;20228;-77
2023/08/23 07:45:28;;;;;;;8.50;7.70;;;23.70;99.90;;;;;;5037205;28;20461;-76
2023/08/23 07:47:54;;;;;;;7.37;6.87;;;23.70;99.90;;;;;;5031522;28;20647;-77
2023/08/23 07:50:20;;;;;;;8.30;7.50;;;23.70;99.90;;;;;;5037525;28;20827;-76
2023/08/23 07:52:45;;;;;;;8.00;7.23;;;23.80;99.90;;;;;;5052197;28;20219;-76
2023/08/23 07:55:11;;;;;;;6.70;6.20;;;23.90;99.90;;;;;;5038584;28;20231;-76
2023/08/23 07:57:36;;;;;;;8.50;7.27;;;24.00;99.90;;;;;;5036443;28;20245;-76
2023/08/23 08:00:03;;;;;;;7.67;6.93;;;24.10;99.90;;;;;;5039355;28;20219;-76
2023/08/23 08:02:32;;;;;;;8.10;7.33;;;24.20;99.90;;;;;;5039343;28;20220;-76
2023/08/23 08:04:57;;;;;;;7.03;6.43;;;24.20;99.90;;;;;;5021222;28;20987;-76
2023/08/23 08:07:23;;;;;;;7.40;6.70;;;24.30;99.90;;;;;;5036950;28;20677;-76
2023/08/23 08:09:48;;;;;;;11.50;6.87;;;24.30;99.90;;;;;;5051627;28;20719;-76
2023/08/23 08:12:14;;;;;;;6.80;6.30;;;24.40;99.90;;;;;;5055082;28;20234;-76
2023/08/23 08:14:40;;;;;;;7.27;6.77;;;24.40;99.90;;;;;;5056670;28;20235;-76
2023/08/23 08:17:06;;;;;;;7.77;7.07;;;24.50;99.90;;;;;;5053704;28;20257;-76
2023/08/23 08:19:31;;;;;;;6.37;5.87;;;24.60;99.90;;;;;;5040619;28;20469;-76
2023/08/23 08:21:57;;;;;;;6.37;5.93;;;24.70;99.90;;;;;;5038774;28;20218;-76
2023/08/23 08:24:23;;;;;;;7.43;6.73;;;24.70;99.90;;;;;;5041100;28;20234;-76
2023/08/23 08:26:48;;;;;;;6.43;5.90;;;24.80;99.90;;;;;;5038054;28;20223;-77
2023/08/23 08:29:14;;;;;;;7.40;6.80;;;24.80;99.90;;;;;;5057667;28;20222;-76
2023/08/23 08:31:40;;;;;;;6.53;6.13;;;24.80;99.90;;;;;;5041553;28;20784;-78
2023/08/23 08:34:06;;;;;;;7.13;6.63;;;24.90;99.90;;;;;;5040506;28;20329;-76
2023/08/23 08:36:32;;;;;;;7.10;6.50;;;25.00;99.90;;;;;;5053879;28;20683;-76
2023/08/23 08:38:57;;;;;;;7.60;6.90;;;25.20;99.90;;;;;;5025171;28;20485;-76
2023/08/23 08:41:23;;;;;;;6.47;5.87;;;25.20;99.90;;;;;;5074047;28;20243;-76
2023/08/23 08:43:50;;;;;;;9.27;7.33;;;25.30;99.90;;;;;;5042344;28;20572;-76
2023/08/23 08:46:16;;;;;;;6.80;6.20;;;25.40;99.90;;;;;;5043738;28;20224;-76
2023/08/23 08:48:42;;;;;;;6.43;5.93;;;25.50;99.90;;;;;;5044008;28;20949;-76
2023/08/23 08:51:18;;;;;;;7.10;6.40;;;25.40;99.90;;;;;;5071049;28;20693;-77
2023/08/23 08:53:46;;;;;;;6.83;6.40;;;25.60;99.90;;;;;;5072627;28;20226;-76
2023/08/23 08:56:12;;;;;;;6.77;6.33;;;25.60;99.90;;;;;;5053223;28;20485;-76
2023/08/23 08:58:38;;;;;;;7.80;7.10;;;25.70;99.90;;;;;;5040177;28;20577;-77
2023/08/23 09:01:06;;;;;;;6.90;6.20;;;25.70;99.90;;;;;;5022565;28;20466;-77
2023/08/23 09:03:31;;;;;;;6.37;5.77;;;25.80;99.90;;;;;;5059990;28;20397;-76
2023/08/23 09:05:57;;;;;;;8.67;6.60;;;25.80;99.90;;;;;;5071291;28;20986;-76
2023/08/23 09:08:23;;;;;;;6.07;5.57;;;25.90;99.90;;;;;;5040675;28;20226;-77
2023/08/23 09:10:48;;;;;;;6.77;6.13;;;25.90;99.90;;;;;;5043393;28;20231;-76
2023/08/23 09:13:14;;;;;;;6.10;5.40;;;26.00;99.90;;;;;;5040740;28;20304;-76
2023/08/23 09:15:40;;;;;;;7.37;6.33;;;26.10;99.90;;;;;;5025173;28;20219;-77
2023/08/23 09:18:05;;;;;;;7.47;6.87;;;26.20;99.90;;;;;;5022431;28;20305;-77
2023/08/23 09:20:31;;;;;;;6.80;6.30;;;26.20;99.90;;;;;;5024876;28;20696;-77
2023/08/23 09:22:57;;;;;;;7.50;6.83;;;26.30;99.90;;;;;;5042720;28;21775;-76
2023/08/23 09:25:24;;;;;;;6.87;6.27;;;26.30;99.90;;;;;;5026322;28;20227;-77
2023/08/23 09:27:53;;;;;;;7.23;6.20;;;26.30;99.90;;;;;;5041061;28;20227;-76
2023/08/23 09:30:18;;;;;;;6.70;6.20;;;26.40;99.90;;;;;;5059454;28;20457;-77
2023/08/23 09:32:45;;;;;;;7.30;6.60;;;26.50;99.90;;;;;;5047964;28;20468;-78
2023/08/23 09:35:14;;;;;;;6.77;6.07;;;26.60;99.90;;;;;;5077377;28;20284;-76
2023/08/23 09:37:48;;;;;;;7.20;6.57;;;27.00;99.90;;;;;;5030183;28;20588;-76
2023/08/23 09:40:20;;;;;;;7.57;6.73;;;27.00;99.90;;;;;;5078278;28;20623;-77
2023/08/23 09:42:46;;;;;;;6.43;5.93;;;26.70;99.90;;;;;;5047675;28;20484;-77
2023/08/23 09:45:18;;;;;;;6.57;6.00;;;26.80;99.90;;;;;;5062333;28;20250;-76
2023/08/23 09:47:55;;;;;;;6.73;6.10;;;27.10;99.90;;;;;;5014378;28;20953;-74
2023/08/23 09:50:22;;;;;;;6.60;6.10;;;27.30;99.90;;;;;;5010343;28;20226;-76
2023/08/23 09:52:51;;;;;;;6.28;5.78;;;27.20;99.90;;;;;;5035140;28;20223;-76
2023/08/23 09:55:17;;;;;;;8.07;6.85;;;27.40;99.90;;;;;;5015265;28;20235;-75
2023/08/23 09:57:43;;;;;;;10.68;6.25;;;27.50;99.90;;;;;;5032875;28;20231;-76
2023/08/23 10:00:09;;;;;;;5.57;5.18;;;27.70;99.90;;;;;;5061708;28;20227;-76
2023/08/23 10:02:37;;;;;;;5.53;5.13;;;27.40;99.90;;;;;;5062482;28;20220;-76
2023/08/23 10:05:04;;;;;;;5.40;5.00;;;27.60;99.90;;;;;;5034313;28;20230;-76
2023/08/23 10:07:34;;;;;;;5.57;5.18;;;27.60;99.90;;;;;;5031169;28;20223;-76
2023/08/23 10:09:59;;;;;;;5.85;5.35;;;27.60;99.90;;;;;;5064290;28;20231;-76
2023/08/23 10:12:26;;;;;;;5.82;5.32;;;27.60;99.90;;;;;;5048859;28;20284;-76
2023/08/23 10:14:53;;;;;;;6.97;6.47;;;27.70;99.90;;;;;;5033328;28;20227;-75
2023/08/23 10:17:21;;;;;;;5.25;4.85;;;27.70;99.90;;;;;;5029931;28;20227;-76
2023/08/23 10:19:47;;;;;;;6.53;5.03;;;28.00;99.90;;;;;;5031342;28;20312;-76
2023/08/23 10:22:13;;;;;;;5.97;5.40;;;28.10;99.90;;;;;;5012213;28;20235;-76
2023/08/23 10:24:40;;;;;;;5.88;5.47;;;28.10;99.90;;;;;;5028380;28;20248;-76
2023/08/23 10:27:08;;;;;;;5.70;4.65;;;28.30;99.90;;;;;;5008714;28;20231;-76
2023/08/23 10:29:37;;;;;;;5.10;4.70;;;28.60;99.90;;;;;;5012313;28;20215;-76
2023/08/23 10:32:10;;;;;;;6.05;4.88;;;28.70;99.90;;;;;;5011445;28;20235;-76
2023/08/23 10:34:38;;;;;;;5.38;4.93;;;28.70;99.90;;;;;;5013037;28;20366;-76
2023/08/23 10:37:17;;;;;;;5.40;4.95;;;28.80;99.90;;;;;;5041262;28;20227;-76
2023/08/23 10:39:51;;;;;;;4.97;4.68;;;28.70;99.90;;;;;;5012531;28;20223;-76
2023/08/23 10:42:17;;;;;;;5.30;4.90;;;28.70;99.90;;;;;;5013458;28;20269;-76
2023/08/23 10:44:57;;;;;;;5.40;4.90;;;28.60;99.90;;;;;;4995889;28;20216;-76
2023/08/23 10:47:23;;;;;;;5.88;5.15;;;28.60;99.90;;;;;;5009562;28;20233;-77
2023/08/23 10:49:50;;;;;;;6.10;4.75;;;28.40;99.90;;;;;;4995054;28;20285;-76
2023/08/23 10:52:16;;;;;;;5.05;4.65;;;28.50;99.90;;;;;;4996051;28;20235;-76
2023/08/23 10:54:42;;;;;;;6.40;4.88;;;28.70;99.90;;;;;;5023385;28;20237;-76
2023/08/23 10:57:09;;;;;;;5.18;4.68;;;28.50;99.90;;;;;;5017737;28;20836;-77
2023/08/23 10:59:34;;;;;;;5.03;4.63;;;28.60;99.90;;;;;;5032148;28;20301;-75
2023/08/23 11:02:00;;;;;;;4.93;4.50;;;28.80;99.90;;;;;;5048693;28;20219;-76
2023/08/23 11:04:26;;;;;;;4.47;4.07;;;29.00;99.90;;;;;;5037787;28;20306;-75
2023/08/23 11:06:52;;;;;;;4.53;4.22;;;29.30;99.90;;;;;;5037979;28;20327;-76
2023/08/23 11:09:18;;;;;;;4.63;4.32;;;29.00;99.90;;;;;;5039359;28;20250;-76
2023/08/23 11:11:44;;;;;;;4.95;4.55;;;29.20;99.90;;;;;;5038598;28;20227;-76
2023/08/23 11:14:10;;;;;;;4.18;3.88;;;29.30;99.90;;;;;;5033363;28;20680;-76
2023/08/23 11:16:38;;;;;;;3.83;3.47;;;29.30;99.30;;;;;;5025326;28;20218;-76
2023/08/23 11:19:05;;;;;;;3.00;2.80;;;29.50;98.90;;;;;;5063973;28;20242;-76
2023/08/23 11:21:32;;;;;;;2.92;2.72;;;29.40;97.10;;;;;;5038561;28;20678;-76
2023/08/23 11:24:05;;;;;;;3.00;2.42;;;29.60;96.70;;;;;;5038950;28;20759;-75
2023/08/23 11:26:37;;;;;;;4.90;3.53;;;29.50;96.00;;;;;;5038255;28;20316;-76
2023/08/23 11:29:04;;;;;;;2.90;2.70;;;29.80;96.20;;;;;;5053040;28;20231;-76
2023/08/23 11:31:32;;;;;;;4.25;3.85;;;29.90;97.20;;;;;;5040566;28;20919;-76
2023/08/23 11:34:05;;;;;;;3.78;3.47;;;30.00;96.90;;;;;;5055625;28;20224;-75
2023/08/23 11:36:32;;;;;;;4.07;3.80;;;30.10;97.30;;;;;;5057103;28;20440;-76
2023/08/23 11:39:03;;;;;;;3.47;3.28;;;30.50;97.40;;;;;;5039492;28;20215;-76
2023/08/23 11:41:33;;;;;;;4.40;4.03;;;30.50;96.90;;;;;;5042894;28;20215;-76
2023/08/23 11:44:07;;;;;;;4.30;3.97;;;30.20;96.80;;;;;;5039536;28;20316;-76
2023/08/23 11:46:37;;;;;;;4.50;4.10;;;30.10;97.20;;;;;;5038226;28;20231;-76
2023/08/23 11:49:04;;;;;;;4.30;4.00;;;30.00;97.00;;;;;;5040943;28;20265;-76
2023/08/23 11:51:43;;;;;;;4.20;3.90;;;29.70;96.60;;;;;;5054921;28;20926;-76
2023/08/23 11:54:10;;;;;;;4.07;3.78;;;29.90;97.50;;;;;;5037729;28;20272;-75
2023/08/23 11:56:39;;;;;;;3.65;3.45;;;30.40;97.30;;;;;;5038110;28;20231;-76
2023/08/23 11:59:05;;;;;;;3.88;3.63;;;30.70;97.00;;;;;;5070170;28;20307;-76
2023/08/23 12:01:31;;;;;;;4.10;3.50;;;31.20;95.50;;;;;;5025497;28;21108;-76
2023/08/23 12:03:56;;;;;;;4.18;3.88;;;31.40;95.60;;;;;;5041659;28;20704;-76
2023/08/23 12:06:22;;;;;;;4.03;3.72;;;31.60;94.60;;;;;;5035464;28;20231;-75
2023/08/23 12:08:48;;;;;;;4.00;3.80;;;31.70;94.40;;;;;;5010426;28;20440;-76
2023/08/23 12:11:13;;;;;;;3.53;3.33;;;31.80;94.50;;;;;;5010863;28;20226;-76
2023/08/23 12:13:41;;;;;;;3.33;3.13;;;31.60;95.10;;;;;;5010099;28;20228;-76
2023/08/23 12:16:07;;;;;;;3.67;3.35;;;31.50;95.50;;;;;;5025321;28;20219;-76
2023/08/23 12:18:33;;;;;;;4.10;3.80;;;31.40;95.40;;;;;;5011488;28;20268;-76
2023/08/23 12:20:59;;;;;;;4.22;3.67;;;31.20;95.00;;;;;;5007461;28;20222;-77
2023/08/23 12:23:25;;;;;;;3.95;3.65;;;31.00;95.10;;;;;;5009682;28;20253;-75
2023/08/23 12:25:51;;;;;;;3.45;3.20;;;30.90;94.90;;;;;;5007464;28;20306;-76
2023/08/23 12:28:17;;;;;;;3.83;3.53;;;30.70;95.00;;;;;;4993479;28;20369;-76
2023/08/23 12:30:42;;;;;;;3.42;3.22;;;31.10;94.60;;;;;;5019132;28;20226;-75
2023/08/23 12:33:08;;;;;;;3.42;3.22;;;31.00;93.90;;;;;;5024453;28;21839;-75
2023/08/23 12:35:34;;;;;;;4.03;3.83;;;30.70;94.40;;;;;;5042094;28;20324;-76
2023/08/23 12:37:59;;;;;;;7.20;3.50;;;30.70;94.80;;;;;;5032065;28;20231;-76
2023/08/23 12:40:25;;;;;;;3.13;2.92;;;30.70;94.50;;;;;;5036122;28;20227;-76
2023/08/23 12:42:51;;;;;;;3.10;2.80;;;30.90;94.60;;;;;;5027984;28;20330;-76